Time;durP1;ratioP1;P1;durP2;ratioP2;P2;SDS_P1;SDS_P2;PMS_P1;PMS_P2;Temp;Humidity;BMP_temperature;BMP_pressure;BME280_temperature;BME280_humidity;BME280_pressure;Samples;Min_cycle;Max_cycle;Signal;HPM_P1;HPM_P2
2023/03/28 00:02:07;;;;;;;13.82;2.83;;;;;;;7.74;79.75;100961.69;4989177;28;20058;-44
2023/03/28 00:04:36;;;;;;;13.32;2.97;;;;;;;7.74;79.97;100958.09;4988427;28;20057;-43
2023/03/28 00:07:04;;;;;;;9.77;3.60;;;;;;;7.74;80.18;100945.13;4989032;28;20507;-42
2023/03/28 00:09:32;;;;;;;8.35;2.67;;;;;;;7.73;80.32;100949.00;4988755;28;20097;-43
2023/03/28 00:11:59;;;;;;;5.75;2.47;;;;;;;7.72;80.56;100950.16;4989204;28;20416;-43
2023/03/28 00:14:25;;;;;;;12.25;3.00;;;;;;;7.71;80.68;100943.03;4989904;28;20396;-45
2023/03/28 00:16:52;;;;;;;12.25;3.15;;;;;;;7.70;80.98;100938.66;4988934;28;20081;-43
2023/03/28 00:19:19;;;;;;;14.60;3.92;;;;;;;7.69;81.08;100928.75;4988959;28;20505;-44
2023/03/28 00:21:49;;;;;;;6.72;2.55;;;;;;;7.70;81.18;100929.56;4989032;28;20491;-42
2023/03/28 00:24:20;;;;;;;6.78;2.95;;;;;;;7.70;81.31;100933.16;4988829;28;20046;-43
2023/03/28 00:26:48;;;;;;;8.68;2.70;;;;;;;7.70;81.57;100916.63;4988921;28;20043;-42
2023/03/28 00:29:19;;;;;;;11.70;3.17;;;;;;;7.70;81.61;100911.09;4989060;28;20483;-43
2023/03/28 00:31:48;;;;;;;4.28;2.35;;;;;;;7.70;81.86;100908.34;4972004;28;20093;-42
2023/03/28 00:34:16;;;;;;;8.85;2.85;;;;;;;7.70;81.91;100905.59;4988978;28;20073;-43
2023/03/28 00:36:43;;;;;;;12.02;2.88;;;;;;;7.72;81.72;100902.50;4988731;28;20054;-49
2023/03/28 00:39:09;;;;;;;12.50;3.13;;;;;;;7.72;82.21;100903.31;4988857;28;20145;-42
2023/03/28 00:41:40;;;;;;;8.57;3.67;;;;;;;7.74;82.35;100908.50;4988507;28;20085;-43
2023/03/28 00:44:40;;;;;;;9.93;3.35;;;;;;;7.74;82.57;100890.03;4988847;28;20042;-42
2023/03/28 00:47:26;;;;;;;8.00;2.92;;;;;;;7.75;82.50;100899.91;4988485;28;20056;-42
2023/03/28 00:50:00;;;;;;;7.47;2.50;;;;;;;7.74;82.45;100884.50;4998183;28;20077;-47
2023/03/28 00:52:29;;;;;;;9.32;3.58;;;;;;;7.74;82.91;100889.19;4988976;28;20141;-42
2023/03/28 00:54:58;;;;;;;8.93;3.72;;;;;;;7.75;82.77;100886.16;4980343;28;20061;-42
2023/03/28 00:57:26;;;;;;;8.30;2.85;;;;;;;7.74;83.11;100879.00;4989211;28;20054;-48
2023/03/28 00:59:54;;;;;;;17.45;4.05;;;;;;;7.74;83.13;100873.47;4986292;28;20128;-44
2023/03/28 01:02:21;;;;;;;18.10;4.57;;;;;;;7.71;83.39;100874.13;4991540;28;20512;-42
2023/03/28 01:04:58;;;;;;;11.45;4.22;;;;;;;7.70;83.68;100867.00;4975321;28;20053;-47
2023/03/28 01:07:34;;;;;;;17.40;5.65;;;;;;;7.68;83.64;100861.00;4992183;28;20049;-44
2023/03/28 01:10:03;;;;;;;12.70;3.85;;;;;;;7.70;84.05;100855.16;4974822;28;20452;-42
2023/03/28 01:12:31;;;;;;;7.65;3.40;;;;;;;7.68;84.16;100838.94;4991626;28;20056;-42
2023/03/28 01:15:00;;;;;;;8.98;3.88;;;;;;;7.68;84.40;100830.69;4974137;28;20050;-42
2023/03/28 01:17:29;;;;;;;11.65;3.83;;;;;;;7.67;84.34;100829.06;4991523;28;20050;-47
2023/03/28 01:20:38;;;;;;;17.67;4.35;;;;;;;7.67;84.73;100818.06;4991775;28;20050;-43
2023/03/28 01:23:33;;;;;;;18.77;7.50;;;;;;;7.67;84.88;100815.31;4992151;28;20407;-48
2023/03/28 01:26:47;;;;;;;12.45;4.38;;;;;;;7.67;85.14;100811.72;4991569;28;20411;-43
2023/03/28 01:29:40;;;;;;;15.80;3.70;;;;;;;7.68;85.33;100800.38;4911103;28;20070;-43
2023/03/28 01:32:25;;;;;;;;;;;;;;;7.67;85.61;100796.00;4940557;28;20061;-43
2023/03/28 01:35:20;;;;;;;16.02;3.15;;;;;;;7.66;85.37;100788.88;4991558;28;19928;-46
2023/03/28 01:37:55;;;;;;;17.05;4.25;;;;;;;7.66;85.34;100783.34;4991476;28;20477;-42
2023/03/28 01:40:28;;;;;;;8.48;3.03;;;;;;;7.67;85.55;100785.00;4992058;28;20048;-42
2023/03/28 01:42:58;;;;;;;12.38;2.92;;;;;;;7.69;85.64;100779.97;4990968;28;20048;-43
2023/03/28 01:45:33;;;;;;;11.05;3.00;;;;;;;7.69;85.79;100779.97;4991088;28;20050;-42
2023/03/28 01:48:13;;;;;;;11.00;3.13;;;;;;;7.71;86.14;100777.69;4973459;28;20038;-42
2023/03/28 01:50:46;;;;;;;12.75;3.88;;;;;;;7.71;86.03;100774.09;4991083;28;20057;-49
2023/03/28 01:53:42;;;;;;;8.60;2.08;;;;;;;7.70;86.58;100767.81;4991281;28;20564;-42
2023/03/28 01:56:29;;;;;;;12.00;3.28;;;;;;;7.70;86.36;100769.75;4991414;28;20042;-42
2023/03/28 01:58:58;;;;;;;15.20;3.10;;;;;;;7.70;86.44;100773.31;4990916;28;20108;-44
2023/03/28 02:01:44;;;;;;;9.45;2.40;;;;;;;7.70;86.63;100767.81;4990908;28;20408;-42
2023/03/28 02:04:19;;;;;;;10.52;2.83;;;;;;;7.70;86.64;100776.06;4990345;28;20526;-42
2023/03/28 02:06:49;;;;;;;11.77;2.45;;;;;;;7.68;86.69;100775.56;4989600;28;20073;-43
2023/03/28 02:09:20;;;;;;;3.40;1.10;;;;;;;7.68;86.72;100764.53;4984027;28;20379;-42
2023/03/28 02:11:54;;;;;;;8.32;1.08;;;;;;;7.67;86.93;100764.88;4986033;28;20046;-42
2023/03/28 02:14:25;;;;;;;6.07;1.15;;;;;;;7.66;87.05;100758.56;4991408;28;20475;-44
2023/03/28 02:16:59;;;;;;;4.78;0.80;;;;;;;7.67;86.89;100762.94;4990476;28;20463;-42
2023/03/28 02:19:27;;;;;;;5.28;1.10;;;;;;;7.68;87.01;100752.72;4990833;28;20070;-50
2023/03/28 02:22:14;;;;;;;4.32;0.95;;;;;;;7.66;87.11;100750.28;4990825;28;20050;-44
2023/03/28 02:24:41;;;;;;;7.97;1.23;;;;;;;7.66;86.95;100743.97;4990638;28;20050;-43
2023/03/28 02:27:08;;;;;;;2.15;0.60;;;;;;;7.64;87.02;100744.31;4990308;28;20042;-44
2023/03/28 02:29:37;;;;;;;6.30;0.93;;;;;;;7.64;87.15;100732.47;4990839;28;20061;-47
2023/03/28 02:32:04;;;;;;;5.05;0.80;;;;;;;7.63;87.28;100728.06;4990370;28;20436;-42
2023/03/28 02:34:31;;;;;;;2.47;0.50;;;;;;;7.62;87.25;100710.75;4990501;28;20071;-42
2023/03/28 02:37:30;;;;;;;3.83;0.75;;;;;;;7.60;87.50;100699.25;4990364;28;20043;-42
2023/03/28 02:39:57;;;;;;;5.68;0.80;;;;;;;7.58;87.46;100682.22;4977908;28;20140;-44
2023/03/28 02:42:50;;;;;;;5.10;0.55;;;;;;;7.56;87.43;100673.50;4990191;28;20049;-44
2023/03/28 02:45:31;;;;;;;;;;;;;;;7.55;87.89;100654.50;4990450;28;20057;-42
2023/03/28 02:48:21;;;;;;;1.30;0.60;;;;;;;7.52;87.48;100653.22;4990583;28;19922;-42
2023/03/28 02:51:10;;;;;;;2.42;0.52;;;;;;;7.48;87.55;100645.94;4972941;28;20096;-42
2023/03/28 02:53:43;;;;;;;2.70;0.60;;;;;;;7.45;87.74;100647.41;4990672;28;20817;-43
2023/03/28 02:56:20;;;;;;;2.90;0.43;;;;;;;7.44;87.76;100665.06;4977335;28;20064;-47
2023/03/28 02:58:59;;;;;;;3.15;0.40;;;;;;;7.42;88.00;100661.03;4990124;28;20043;-44
2023/03/28 03:01:28;;;;;;;0.20;0.20;;;;;;;7.40;88.18;100655.84;5027390;23;20062;-44
2023/03/28 03:03:56;;;;;;;0.80;0.80;;;;;;;7.39;88.13;100645.97;5010407;28;20044;-44
2023/03/28 03:06:24;;;;;;;1.33;0.30;;;;;;;7.38;88.27;100647.13;5009582;28;20148;-44
2023/03/28 03:08:50;;;;;;;2.40;0.68;;;;;;;7.35;88.50;100634.00;4991709;28;20057;-44
2023/03/28 03:11:17;;;;;;;2.22;0.45;;;;;;;7.35;88.52;100631.25;5009303;28;20052;-44
2023/03/28 03:13:44;;;;;;;2.10;0.50;;;;;;;7.34;88.48;100627.66;5009410;28;20034;-44
2023/03/28 03:16:11;;;;;;;13.35;1.95;;;;;;;7.35;88.54;100628.47;5009136;28;20042;-44
2023/03/28 03:18:37;;;;;;;2.90;0.50;;;;;;;7.34;88.67;100627.66;5009083;28;20042;-45
2023/03/28 03:21:04;;;;;;;1.38;0.32;;;;;;;7.33;88.73;100614.25;5003694;28;20052;-44
2023/03/28 03:23:31;;;;;;;3.50;0.70;;;;;;;7.34;88.96;100621.34;5008658;28;20046;-44
2023/03/28 03:25:58;;;;;;;2.33;0.73;;;;;;;7.34;88.89;100618.59;5008896;28;20049;-43
2023/03/28 03:28:25;;;;;;;6.07;0.90;;;;;;;7.36;88.81;100608.06;5008650;28;20034;-43
2023/03/28 03:30:52;;;;;;;8.00;1.67;;;;;;;7.35;89.13;100611.97;5009216;28;20392;-44
2023/03/28 03:33:19;;;;;;;1.95;1.15;;;;;;;7.35;89.16;100606.44;5008771;28;20044;-43
2023/03/28 03:35:46;;;;;;;13.70;1.10;;;;;;;7.36;89.23;100605.28;5009055;28;20357;-43
2023/03/28 03:38:13;;;;;;;3.63;1.00;;;;;;;7.37;89.49;100593.16;5009385;28;20042;-43
2023/03/28 03:40:40;;;;;;;6.03;1.13;;;;;;;7.36;89.57;100580.50;5008809;28;20046;-46
2023/03/28 03:43:06;;;;;;;8.60;0.90;;;;;;;7.39;89.56;100579.84;5009039;28;20061;-43
2023/03/28 03:45:33;;;;;;;7.60;1.02;;;;;;;7.39;89.70;100573.56;4991278;28;20054;-44
2023/03/28 03:48:00;;;;;;;2.25;0.98;;;;;;;7.39;89.67;100571.59;5008610;28;20069;-45
2023/03/28 03:50:27;;;;;;;3.60;1.15;;;;;;;7.40;89.61;100570.47;5008763;28;20049;-43
2023/03/28 03:52:53;;;;;;;7.22;1.75;;;;;;;7.41;89.82;100561.09;5008933;28;20140;-44
2023/03/28 03:55:20;;;;;;;5.00;1.23;;;;;;;7.41;89.70;100544.56;5009682;28;20563;-47
2023/03/28 03:57:48;;;;;;;4.53;1.20;;;;;;;7.42;89.76;100557.19;4995688;28;20392;-43
2023/03/28 04:00:15;;;;;;;3.78;0.98;;;;;;;7.42;89.73;100546.16;5008419;28;20637;-48
2023/03/28 04:02:42;;;;;;;5.55;0.75;;;;;;;7.43;89.81;100549.72;5008531;28;20053;-44
2023/03/28 04:05:09;;;;;;;3.72;1.02;;;;;;;7.44;89.89;100541.13;5008633;28;20061;-44
2023/03/28 04:07:37;;;;;;;3.78;1.83;;;;;;;7.44;89.98;100534.81;5003339;28;20070;-49
2023/03/28 04:10:04;;;;;;;5.72;1.20;;;;;;;7.44;89.87;100530.09;5006472;28;20141;-46
2023/03/28 04:12:31;;;;;;;4.50;1.27;;;;;;;7.44;89.83;100524.59;5006838;28;20539;-44
2023/03/28 04:14:58;;;;;;;5.25;1.73;;;;;;;7.45;89.98;100528.97;5008803;28;20038;-44
2023/03/28 04:17:28;;;;;;;12.93;2.55;;;;;;;7.46;89.72;100513.25;5008870;28;20387;-49
2023/03/28 04:20:01;;;;;;;3.92;1.65;;;;;;;7.47;90.09;100520.38;5008688;28;20089;-44
2023/03/28 04:22:28;;;;;;;9.32;2.25;;;;;;;7.48;90.00;100511.78;5008776;28;20057;-43
2023/03/28 04:24:56;;;;;;;6.90;1.80;;;;;;;7.49;90.05;100521.69;5008763;28;20428;-43
2023/03/28 04:27:25;;;;;;;6.20;1.23;;;;;;;7.48;90.02;100500.78;5008729;28;20064;-46
2023/03/28 04:29:54;;;;;;;8.40;1.67;;;;;;;7.49;90.09;100507.09;5010095;28;20046;-44
2023/03/28 04:32:23;;;;;;;5.93;1.20;;;;;;;7.47;90.35;100507.41;5012463;28;20053;-44
2023/03/28 04:34:49;;;;;;;7.85;1.30;;;;;;;7.47;90.46;100504.66;5012462;28;20053;-44
2023/03/28 04:37:17;;;;;;;8.27;0.95;;;;;;;7.46;90.49;100492.03;5012423;28;20462;-43
2023/03/28 04:39:46;;;;;;;10.30;2.00;;;;;;;7.45;90.38;100493.16;5012252;28;20053;-44
2023/03/28 04:42:13;;;;;;;4.75;1.10;;;;;;;7.45;90.48;100495.13;5012129;28;20084;-47
2023/03/28 04:44:40;;;;;;;6.55;1.73;;;;;;;7.44;90.65;100479.75;5012342;28;20863;-44
2023/03/28 04:47:10;;;;;;;5.72;0.90;;;;;;;7.43;90.45;100467.09;5012714;28;20046;-44
2023/03/28 04:49:37;;;;;;;8.50;0.75;;;;;;;7.39;90.47;100472.44;5012462;28;20041;-43
2023/03/28 04:52:04;;;;;;;4.57;1.50;;;;;;;7.38;90.56;100468.09;5012063;28;20128;-44
2023/03/28 04:54:31;;;;;;;4.05;0.80;;;;;;;7.37;90.47;100474.72;5012057;28;20486;-43
2023/03/28 04:56:58;;;;;;;7.88;1.55;;;;;;;7.35;90.40;100455.81;5011846;28;20056;-44
2023/03/28 04:59:25;;;;;;;7.20;1.00;;;;;;;7.35;90.23;100463.25;5012039;28;20710;-50
2023/03/28 05:01:51;;;;;;;5.90;0.90;;;;;;;7.34;90.15;100447.84;5011874;28;20089;-48
2023/03/28 05:04:19;;;;;;;4.68;0.90;;;;;;;7.31;90.15;100435.56;5012750;28;20069;-43
2023/03/28 05:06:46;;;;;;;1.90;0.80;;;;;;;7.31;90.19;100446.56;5011730;28;20545;-44
2023/03/28 05:09:14;;;;;;;4.10;0.80;;;;;;;7.29;90.22;100432.34;5012016;28;20090;-43
2023/03/28 05:11:41;;;;;;;5.63;0.95;;;;;;;7.30;90.25;100438.66;5011568;28;20507;-43
2023/03/28 05:14:07;;;;;;;4.97;0.90;;;;;;;7.31;90.33;100420.97;5011799;28;20399;-43
2023/03/28 05:16:34;;;;;;;2.25;0.90;;;;;;;7.31;90.08;100424.53;5011427;28;20100;-44
2023/03/28 05:19:01;;;;;;;4.70;0.93;;;;;;;7.33;90.11;100421.47;5011795;28;20053;-43
2023/03/28 05:21:28;;;;;;;8.35;1.15;;;;;;;7.33;90.02;100410.47;5011998;28;20056;-44
2023/03/28 05:23:55;;;;;;;2.70;0.90;;;;;;;7.32;90.16;100415.16;5011104;28;20096;-44
2023/03/28 05:26:21;;;;;;;3.20;1.23;;;;;;;7.33;90.03;100410.47;5011355;28;20396;-44
2023/03/28 05:28:49;;;;;;;4.53;1.23;;;;;;;7.33;90.00;100399.44;5011449;28;20050;-45
2023/03/28 05:31:16;;;;;;;5.22;1.27;;;;;;;7.34;90.23;100403.78;5011331;28;20042;-43
2023/03/28 05:33:43;;;;;;;3.47;1.23;;;;;;;7.32;90.43;100392.31;5011263;28;20050;-50
2023/03/28 05:36:10;;;;;;;3.80;1.30;;;;;;;7.33;90.28;100391.97;5011483;28;20056;-44
2023/03/28 05:38:36;;;;;;;3.13;0.90;;;;;;;7.31;90.45;100377.72;5012049;28;21095;-45
2023/03/28 05:41:03;;;;;;;2.38;1.35;;;;;;;7.33;90.54;100371.91;5008839;28;20045;-44
2023/03/28 05:43:30;;;;;;;5.55;1.20;;;;;;;7.33;90.49;100366.41;5010791;28;20053;-46
2023/03/28 05:45:57;;;;;;;4.45;1.30;;;;;;;7.34;90.65;100360.53;5011004;28;20080;-45
2023/03/28 05:48:24;;;;;;;9.32;1.75;;;;;;;7.34;90.64;100348.72;5011018;28;20053;-44
2023/03/28 05:50:51;;;;;;;6.70;1.38;;;;;;;7.37;90.84;100350.81;5010792;28;20049;-43
2023/03/28 05:53:19;;;;;;;2.35;1.15;;;;;;;7.37;90.93;100359.06;5010654;28;20144;-46
2023/03/28 05:55:45;;;;;;;3.95;1.63;;;;;;;7.39;90.85;100348.53;5011419;28;20045;-47
2023/03/28 05:58:12;;;;;;;5.50;1.23;;;;;;;7.43;90.83;100348.66;5011102;28;20089;-44
2023/03/28 06:00:41;;;;;;;2.92;1.20;;;;;;;7.44;90.85;100345.56;5010419;28;20050;-44
2023/03/28 06:03:08;;;;;;;8.68;2.30;;;;;;;7.46;90.80;100343.31;5011042;28;20077;-43
2023/03/28 06:05:42;;;;;;;7.93;2.83;;;;;;;7.45;90.86;100349.13;5010851;28;20403;-44
2023/03/28 06:08:09;;;;;;;3.83;1.52;;;;;;;7.45;90.79;100349.94;5004462;28;20444;-44
2023/03/28 06:10:36;;;;;;;5.32;1.63;;;;;;;7.45;90.93;100344.44;5010974;28;20081;-44
2023/03/28 06:13:03;;;;;;;2.72;1.33;;;;;;;7.46;90.94;100337.81;5010335;28;20081;-50
2023/03/28 06:15:30;;;;;;;1.73;0.80;;;;;;;7.51;90.70;100348.63;5010171;28;20061;-44
2023/03/28 06:17:56;;;;;;;4.15;1.20;;;;;;;7.54;90.54;100331.44;5010099;28;20045;-44
2023/03/28 06:20:23;;;;;;;7.53;1.95;;;;;;;7.56;90.51;100326.38;5010876;28;20446;-43
2023/03/28 06:22:50;;;;;;;5.10;0.80;;;;;;;7.57;90.40;100322.47;5009859;28;20065;-46
2023/03/28 06:25:17;;;;;;;5.72;1.15;;;;;;;7.58;90.46;100318.59;5010239;28;20384;-51
2023/03/28 06:27:44;;;;;;;4.50;1.40;;;;;;;7.60;90.49;100326.53;5010479;28;20060;-43
2023/03/28 06:30:12;;;;;;;5.93;1.02;;;;;;;7.60;90.55;100305.28;5010319;28;20058;-44
2023/03/28 06:32:39;;;;;;;4.43;1.15;;;;;;;7.61;90.56;100300.56;5009827;28;20046;-44
2023/03/28 06:35:07;;;;;;;4.25;0.98;;;;;;;7.60;90.51;100299.75;5009956;28;20045;-44
2023/03/28 06:37:33;;;;;;;4.22;0.93;;;;;;;7.60;90.59;100291.50;5009887;28;20396;-48
2023/03/28 06:40:00;;;;;;;3.90;1.67;;;;;;;7.57;90.88;100286.66;5009891;28;20045;-44
2023/03/28 06:42:27;;;;;;;1.83;1.27;;;;;;;7.56;90.82;100284.25;5009298;28;20046;-43
2023/03/28 06:44:54;;;;;;;5.03;1.00;;;;;;;7.56;90.81;100279.56;5007912;28;20041;-45
2023/03/28 06:47:21;;;;;;;2.83;0.75;;;;;;;7.55;90.99;100285.38;5009505;28;20373;-51
2023/03/28 06:49:47;;;;;;;3.72;1.27;;;;;;;7.55;90.94;100286.19;4992588;28;20428;-43
2023/03/28 06:52:14;;;;;;;4.82;2.20;;;;;;;7.55;90.84;100280.69;5009532;28;20391;-44
2023/03/28 06:54:41;;;;;;;6.70;2.08;;;;;;;7.55;91.20;100272.41;5009836;28;20050;-44
2023/03/28 06:57:08;;;;;;;3.28;1.95;;;;;;;7.55;91.23;100268.84;5009707;28;20054;-44
2023/03/28 06:59:34;;;;;;;7.13;1.88;;;;;;;7.55;91.36;100261.41;4991850;28;20095;-45
2023/03/28 07:02:01;;;;;;;5.65;1.33;;;;;;;7.55;91.27;100271.63;5010104;28;20094;-43
2023/03/28 07:04:29;;;;;;;4.97;1.58;;;;;;;7.54;91.51;100248.78;5009757;28;20054;-44
2023/03/28 07:06:55;;;;;;;5.82;1.17;;;;;;;7.54;91.67;100246.03;5009692;28;20057;-49
2023/03/28 07:09:22;;;;;;;6.80;1.90;;;;;;;7.54;91.75;100246.03;5009210;28;20551;-44
2023/03/28 07:11:49;;;;;;;3.47;1.58;;;;;;;7.52;91.80;100242.78;5009465;28;20046;-46
2023/03/28 07:14:15;;;;;;;4.20;1.48;;;;;;;7.53;91.91;100238.09;5009422;28;20050;-47
2023/03/28 07:16:42;;;;;;;3.53;1.58;;;;;;;7.53;92.09;100243.59;5009624;28;20046;-43
2023/03/28 07:19:09;;;;;;;5.60;1.98;;;;;;;7.54;92.17;100235.03;5010000;28;20400;-46
2023/03/28 07:21:35;;;;;;;5.95;2.17;;;;;;;7.55;92.22;100236.63;4991675;28;20046;-44
2023/03/28 07:24:02;;;;;;;7.97;2.30;;;;;;;7.58;92.51;100246.16;4991859;28;20056;-44
2023/03/28 07:26:30;;;;;;;7.20;2.20;;;;;;;7.59;92.46;100237.56;5009238;28;20049;-44
2023/03/28 07:28:56;;;;;;;10.23;3.92;;;;;;;7.60;92.68;100239.16;4991954;28;20507;-45
2023/03/28 07:31:24;;;;;;;4.65;2.10;;;;;;;7.62;92.97;100233.34;4991891;28;20050;-43
2023/03/28 07:33:51;;;;;;;7.68;2.40;;;;;;;7.63;92.88;100224.72;4991402;28;20427;-46
2023/03/28 07:36:20;;;;;;;4.53;2.20;;;;;;;7.67;93.00;100211.06;5009585;28;20157;-43
2023/03/28 07:38:48;;;;;;;9.93;2.45;;;;;;;7.68;93.13;100205.22;5009250;28;20068;-45
2023/03/28 07:41:15;;;;;;;6.85;2.25;;;;;;;7.70;93.25;100211.22;5009393;28;20133;-45
2023/03/28 07:43:42;;;;;;;5.60;2.72;;;;;;;7.71;93.49;100193.53;5008901;28;20081;-44
2023/03/28 07:46:13;;;;;;;12.23;2.45;;;;;;;7.72;93.68;100192.38;5009322;28;20054;-43
2023/03/28 07:48:40;;;;;;;5.80;2.03;;;;;;;7.73;93.82;100193.97;5008991;28;20049;-44
2023/03/28 07:51:09;;;;;;;6.97;2.10;;;;;;;7.74;94.01;100181.81;5009204;28;20093;-44
2023/03/28 07:53:36;;;;;;;12.50;3.88;;;;;;;7.76;94.13;100179.53;5009172;28;20145;-45
2023/03/28 07:56:04;;;;;;;9.77;2.67;;;;;;;7.79;94.32;100176.09;5008880;28;20064;-44
2023/03/28 07:58:31;;;;;;;4.70;1.58;;;;;;;7.82;94.29;100166.34;4991544;28;20061;-44
2023/03/28 08:01:10;;;;;;;7.90;1.83;;;;;;;7.84;94.34;100167.59;5008529;28;20062;-44
2023/03/28 08:03:38;;;;;;;11.20;2.03;;;;;;;7.86;94.39;100154.28;5009630;28;20054;-45
2023/03/28 08:06:08;;;;;;;3.17;1.00;;;;;;;7.88;94.76;100167.75;5013196;28;20111;-44
2023/03/28 08:08:54;;;;;;;5.57;1.95;;;;;;;7.90;94.71;100166.25;5013525;28;20045;-44
2023/03/28 08:11:21;;;;;;;4.22;1.05;;;;;;;7.92;94.85;100163.94;5013713;28;20097;-44
2023/03/28 08:13:48;;;;;;;3.42;1.52;;;;;;;7.95;94.95;100151.44;5011886;28;20049;-44
2023/03/28 08:16:15;;;;;;;2.67;0.93;;;;;;;7.97;94.99;100151.91;5012317;28;20049;-44
2023/03/28 08:18:41;;;;;;;6.45;1.55;;;;;;;8.03;95.22;100136.75;5012391;28;20116;-45
2023/03/28 08:21:08;;;;;;;5.72;0.60;;;;;;;8.07;95.06;100136.88;5012558;28;20050;-44
2023/03/28 08:23:35;;;;;;;1.15;0.65;;;;;;;8.14;95.21;100131.59;5012072;28;20403;-44
2023/03/28 08:26:04;;;;;;;2.05;0.88;;;;;;;8.21;95.08;100131.81;5012174;28;20137;-44
2023/03/28 08:28:34;;;;;;;1.38;0.60;;;;;;;8.29;94.93;100122.66;5012788;28;20046;-44
2023/03/28 08:31:08;;;;;;;4.28;0.55;;;;;;;8.38;94.73;100134.38;5012260;28;20112;-43
2023/03/28 08:33:35;;;;;;;3.55;0.63;;;;;;;8.43;94.57;100123.94;5012337;28;20049;-43
2023/03/28 08:36:01;;;;;;;2.15;0.52;;;;;;;8.47;94.59;100124.84;5012267;28;20038;-43
2023/03/28 08:38:28;;;;;;;3.63;0.70;;;;;;;8.50;94.64;100123.34;5011905;28;20053;-44
2023/03/28 08:41:04;;;;;;;5.47;1.08;;;;;;;8.53;94.52;100114.38;5012010;28;20065;-43
2023/03/28 08:43:56;;;;;;;6.28;0.80;;;;;;;8.55;94.77;100125.88;5012360;28;20053;-43
2023/03/28 08:46:27;;;;;;;6.82;1.58;;;;;;;8.57;94.75;100118.06;5007200;28;20045;-44
2023/03/28 08:48:55;;;;;;;2.38;0.75;;;;;;;8.58;94.72;100114.13;5011900;28;20054;-43
2023/03/28 08:51:31;;;;;;;5.75;1.13;;;;;;;8.60;94.93;100105.53;5011973;28;20492;-48
2023/03/28 08:54:19;;;;;;;5.80;0.73;;;;;;;8.63;95.03;100105.63;5012176;28;20491;-44
2023/03/28 08:56:50;;;;;;;5.32;0.80;;;;;;;8.64;95.12;100114.69;5011929;28;20077;-47
2023/03/28 08:59:36;;;;;;;2.00;0.68;;;;;;;8.66;95.06;100107.69;4999601;28;20395;-47
2023/03/28 09:02:28;;;;;;;4.63;1.17;;;;;;;8.65;95.14;100108.03;5008941;28;20545;-44
2023/03/28 09:04:57;;;;;;;;;;;;;;;8.64;95.19;100101.72;5012042;28;20458;-46
2023/03/28 09:08:05;;;;;;;1.55;0.80;;;;;;;8.66;95.14;100107.69;5011659;28;20063;-52
2023/03/28 09:10:41;;;;;;;3.10;1.00;;;;;;;8.70;95.24;100092.06;5002634;28;20049;-44
2023/03/28 09:13:19;;;;;;;3.05;0.75;;;;;;;8.75;95.20;100096.53;5012041;28;20054;-48
2023/03/28 09:16:01;;;;;;;5.25;1.38;;;;;;;8.80;95.22;100096.28;4993114;28;20081;-46
2023/03/28 09:18:38;;;;;;;2.10;0.97;;;;;;;8.83;95.33;100088.09;5012287;28;20046;-43
2023/03/28 09:21:22;;;;;;;1.27;0.90;;;;;;;8.85;95.34;100085.78;5011512;28;20141;-44
2023/03/28 09:23:51;;;;;;;4.45;0.82;;;;;;;8.86;95.40;100092.13;5011775;28;20054;-44
2023/03/28 09:26:26;;;;;;;2.35;0.95;;;;;;;8.88;95.45;100095.34;5011483;28;20468;-44
2023/03/28 09:29:15;;;;;;;1.83;0.70;;;;;;;8.92;95.69;100093.50;4994342;28;20040;-44
2023/03/28 09:31:46;;;;;;;4.35;0.90;;;;;;;8.94;95.69;100086.47;5011691;28;20466;-44
2023/03/28 09:34:26;;;;;;;0.55;0.40;;;;;;;9.00;95.65;100092.56;5011261;28;20080;-45
2023/03/28 09:36:58;;;;;;;1.08;0.60;;;;;;;9.04;95.67;100097.00;5020740;28;20053;-45
2023/03/28 09:40:07;;;;;;;2.22;0.70;;;;;;;9.07;95.63;100088.03;5011024;28;20388;-45
2023/03/28 09:42:50;;;;;;;2.00;0.30;;;;;;;9.12;95.52;100082.25;4911890;29;20126;-45
2023/03/28 09:45:17;;;;;;;1.13;0.47;;;;;;;9.17;95.45;100084.75;4912187;29;20492;-45
2023/03/28 09:47:46;;;;;;;1.70;0.20;;;;;;;9.21;95.61;100081.31;4965658;28;20061;-48
2023/03/28 09:50:16;;;;;;;0.50;0.20;;;;;;;9.27;95.66;100085.41;5010674;28;20041;-49
2023/03/28 09:52:45;;;;;;;1.48;0.30;;;;;;;9.30;95.70;100071.69;5011520;28;20066;-49
2023/03/28 09:55:24;;;;;;;1.70;0.40;;;;;;;9.36;95.53;100063.97;5010901;28;20145;-45
2023/03/28 09:58:03;;;;;;;0.95;0.40;;;;;;;9.42;95.58;100059.78;5010577;28;20555;-45
2023/03/28 10:00:36;;;;;;;6.45;1.20;;;;;;;9.46;95.63;100049.63;5010251;28;20049;-46
2023/03/28 10:03:04;;;;;;;2.13;0.55;;;;;;;9.56;95.49;100054.63;5010711;28;20045;-45
2023/03/28 10:05:31;;;;;;;2.42;0.30;;;;;;;9.67;95.62;100050.16;5010226;28;20046;-45
2023/03/28 10:08:03;;;;;;;1.00;0.30;;;;;;;9.89;95.68;100052.31;5010229;28;20049;-45
2023/03/28 10:10:30;;;;;;;3.23;0.50;;;;;;;10.17;95.30;100044.75;5011061;28;20046;-45
2023/03/28 10:13:02;;;;;;;0.43;0.43;;;;;;;10.55;95.05;100035.72;5010304;28;20311;-46
2023/03/28 10:15:29;;;;;;;1.77;0.30;;;;;;;10.96;94.44;100039.78;5000376;28;20057;-47
2023/03/28 10:17:59;;;;;;;0.38;0.38;;;;;;;11.44;93.90;100033.56;5010275;28;20070;-45
2023/03/28 10:20:33;;;;;;;0.75;0.25;;;;;;;11.81;92.30;100030.31;5010255;28;20496;-45
2023/03/28 10:23:00;;;;;;;1.27;0.73;;;;;;;11.97;92.22;100034.53;5010212;28;20042;-51
2023/03/28 10:25:30;;;;;;;0.32;0.20;;;;;;;12.09;92.37;100019.66;5010793;28;20097;-45
2023/03/28 10:27:59;;;;;;;1.40;0.10;;;;;;;12.32;92.66;100022.38;5005193;28;20484;-47
2023/03/28 10:30:28;;;;;;;4.47;0.95;;;;;;;12.59;92.36;100021.19;5009988;28;20136;-47
2023/03/28 10:33:17;;;;;;;1.00;0.10;;;;;;;12.67;91.63;100032.00;5010241;28;20052;-45
2023/03/28 10:35:46;;;;;;;0.90;0.22;;;;;;;12.71;92.08;100016.19;4992694;28;20057;-45
2023/03/28 10:38:17;;;;;;;2.90;0.17;;;;;;;12.90;91.63;100011.66;4997224;28;20392;-45
2023/03/28 10:41:00;;;;;;;2.53;0.20;;;;;;;13.13;90.66;100001.25;5008956;28;20042;-46
2023/03/28 10:43:37;;;;;;;0.70;0.22;;;;;;;13.37;90.45;99995.13;5000875;28;20507;-46
2023/03/28 10:46:11;;;;;;;1.30;0.20;;;;;;;13.59;89.06;99991.38;5010166;28;20056;-46
2023/03/28 10:48:41;;;;;;;0.30;0.10;;;;;;;13.39;88.89;99990.00;5010332;28;20049;-45
2023/03/28 10:51:16;;;;;;;0.55;0.20;;;;;;;13.15;89.74;99988.56;4996343;28;20499;-45
2023/03/28 10:54:04;;;;;;;2.28;0.20;;;;;;;12.97;90.46;99995.06;5009790;28;20131;-46
2023/03/28 10:56:40;;;;;;;0.82;0.30;;;;;;;12.77;90.37;99984.13;5009276;28;20081;-46
2023/03/28 10:59:42;;;;;;;3.90;0.95;;;;;;;12.48;90.58;99986.91;5009554;28;20427;-45
2023/03/28 11:02:21;;;;;;;6.65;2.25;;;;;;;12.17;90.45;99988.06;4968659;28;20049;-46
2023/03/28 11:05:27;;;;;;;6.85;0.75;;;;;;;11.89;91.13;99982.06;5009431;28;20082;-46
2023/03/28 11:08:00;;;;;;;5.68;1.20;;;;;;;11.56;90.93;99988.25;5000955;28;20053;-45
2023/03/28 11:10:36;;;;;;;2.90;0.90;;;;;;;11.36;91.15;99962.56;5008653;28;20046;-49
2023/03/28 11:13:02;;;;;;;5.45;1.10;;;;;;;11.27;91.68;99970.31;5009624;28;20052;-46
2023/03/28 11:15:40;;;;;;;5.78;1.15;;;;;;;11.18;91.63;99961.44;4996602;28;20046;-47
2023/03/28 11:18:34;;;;;;;4.38;1.45;;;;;;;11.14;92.00;99952.28;5009761;28;20050;-46
2023/03/28 11:21:12;;;;;;;6.72;0.88;;;;;;;11.33;91.81;99948.66;5009130;28;20046;-45
2023/03/28 11:23:53;;;;;;;0.93;0.55;;;;;;;11.41;91.34;99945.59;5009445;28;20392;-45
2023/03/28 11:26:52;;;;;;;1.95;0.65;;;;;;;11.51;91.33;99933.94;5008810;28;20042;-46
2023/03/28 11:29:40;;;;;;;1.52;0.57;;;;;;;11.56;91.27;99946.66;5009016;28;20053;-49
2023/03/28 11:32:58;;;;;;;3.15;0.88;;;;;;;11.49;91.06;99941.00;5009128;28;20060;-45
2023/03/28 11:35:31;;;;;;;9.15;1.00;;;;;;;11.43;91.10;99934.97;5002344;28;20128;-46
2023/03/28 11:38:10;;;;;;;3.13;0.70;;;;;;;11.36;91.16;99943.16;5008766;28;20073;-47
2023/03/28 11:40:48;;;;;;;4.30;0.88;;;;;;;11.34;91.24;99928.88;5008983;28;20141;-46
2023/03/28 11:43:32;;;;;;;5.78;1.42;;;;;;;11.33;91.41;99941.13;4997070;28;20054;-49
2023/03/28 11:46:11;;;;;;;4.63;1.17;;;;;;;11.34;91.46;99941.91;5008831;28;20425;-49
2023/03/28 11:48:52;;;;;;;4.25;1.02;;;;;;;11.36;91.49;99937.59;4991806;28;20754;-46
2023/03/28 11:51:33;;;;;;;6.95;1.60;;;;;;;11.42;91.53;99941.69;4997957;28;20487;-46
2023/03/28 11:54:10;;;;;;;5.97;1.90;;;;;;;11.49;91.40;99944.56;5008737;28;20046;-46
2023/03/28 11:57:00;;;;;;;3.92;1.17;;;;;;;11.57;91.62;99949.06;5008659;28;20061;-50